Northrop, Minnesota
Current Conditions -  °F | °C
As of 9:35 PM on Monday 22 Dec 2014 (Local Time) from KFRM Reporting Station
Overcast Overcast  
Wind Chill: 26°   Ceiling: 400
Heat Index: 34°   Visibility: 4mi
Dew Point: 30°   Wind: 9mph
Humidity: 87%   Direction: 80°E
Pressure: 29.52"   Gusts: NA
Location:  43.74°N, 94.44°W
Report Text: KFRM 230335Z AUTO 08008KT 4SM OVC004 01/M01 A2952 RMK AO1
Loading
Personal Weather Stations






























Interactive Weather Map New forecast layout! Learn more

10-Day Weather Forecast

Advertisements
Track Severe Weather on mobile